Time;durP1;ratioP1;P1;durP2;ratioP2;P2;SDS_P1;SDS_P2;PMS_P1;PMS_P2;Temp;Humidity;BMP_temperature;BMP_pressure;BME280_temperature;BME280_humidity;BME280_pressure;Samples;Min_cycle;Max_cycle;Signal;HPM_P1;HPM_P2
2022/07/12 00:01:56;;;;;;;2.70;1.90;;;23.30;58.30;;;;;;4989735;28;20416;-64
2022/07/12 00:04:22;;;;;;;2.65;1.98;;;23.40;58.30;;;;;;4990989;28;20903;-64
2022/07/12 00:06:47;;;;;;;2.57;2.20;;;23.40;58.30;;;;;;4989810;28;20930;-64
2022/07/12 00:09:13;;;;;;;2.15;1.90;;;23.30;58.20;;;;;;4989717;28;20406;-64
2022/07/12 00:11:39;;;;;;;2.50;2.00;;;23.30;58.30;;;;;;4990490;28;20476;-65
2022/07/12 00:14:05;;;;;;;2.20;2.00;;;23.30;58.30;;;;;;4990821;28;20753;-64
2022/07/12 00:16:31;;;;;;;3.00;2.00;;;23.40;58.30;;;;;;4990953;28;20566;-64
2022/07/12 00:18:57;;;;;;;3.05;2.03;;;23.30;58.30;;;;;;4989526;28;20406;-64
2022/07/12 00:21:22;;;;;;;2.30;1.85;;;23.30;58.30;;;;;;4990860;28;20410;-64
2022/07/12 00:23:48;;;;;;;2.17;1.83;;;23.30;58.30;;;;;;4990533;28;20765;-65
2022/07/12 00:26:14;;;;;;;2.40;2.20;;;23.30;58.30;;;;;;4990739;28;20485;-64
2022/07/12 00:28:40;;;;;;;2.00;1.70;;;23.30;58.30;;;;;;4993995;28;20801;-64
2022/07/12 00:31:05;;;;;;;2.00;1.77;;;23.30;58.30;;;;;;5009020;28;20406;-64
2022/07/12 00:33:31;;;;;;;2.40;1.80;;;23.30;58.30;;;;;;4992657;28;20395;-64
2022/07/12 00:35:57;;;;;;;2.03;1.83;;;23.30;58.40;;;;;;4994067;28;20919;-65
2022/07/12 00:38:22;;;;;;;2.13;1.90;;;23.30;58.40;;;;;;4993765;28;20422;-64
2022/07/12 00:40:49;;;;;;;2.40;1.83;;;23.30;58.40;;;;;;4979714;28;20426;-65
2022/07/12 00:43:15;;;;;;;2.00;1.70;;;23.30;58.40;;;;;;4981691;28;20404;-68
2022/07/12 00:45:41;;;;;;;2.40;1.83;;;23.30;58.40;;;;;;4923428;28;1823568;-69
2022/07/12 00:48:06;;;;;;;1.95;1.70;;;23.30;58.50;;;;;;4979143;28;20846;-64
2022/07/12 00:50:33;;;;;;;2.20;1.70;;;23.30;58.50;;;;;;4978220;28;20450;-64
2022/07/12 00:52:59;;;;;;;2.13;1.80;;;23.30;58.50;;;;;;4975524;28;20396;-65
2022/07/12 00:55:24;;;;;;;1.80;1.60;;;23.30;58.50;;;;;;4975560;28;20387;-65
2022/07/12 00:57:51;;;;;;;2.35;1.70;;;23.30;58.50;;;;;;4975207;28;20403;-64
2022/07/12 01:00:20;;;;;;;2.53;1.70;;;23.30;58.50;;;;;;4974221;28;20400;-65
2022/07/12 01:02:47;;;;;;;2.13;1.70;;;23.30;58.60;;;;;;4975338;28;20446;-64
2022/07/12 01:05:13;;;;;;;1.92;1.70;;;23.30;58.50;;;;;;4975225;28;20432;-67
2022/07/12 01:07:39;;;;;;;1.80;1.70;;;23.30;58.60;;;;;;4974872;28;20416;-65
2022/07/12 01:10:06;;;;;;;2.05;1.85;;;23.20;58.60;;;;;;4975157;28;20396;-65
2022/07/12 01:12:33;;;;;;;1.80;1.63;;;23.30;58.60;;;;;;4975169;28;20392;-65
2022/07/12 01:14:59;;;;;;;2.70;1.77;;;23.30;58.60;;;;;;4975069;28;20412;-64
2022/07/12 01:17:26;;;;;;;2.08;1.88;;;23.30;58.60;;;;;;4975214;28;20447;-64
2022/07/12 01:19:54;;;;;;;1.88;1.75;;;23.30;58.60;;;;;;4974770;28;20404;-64
2022/07/12 01:22:25;;;;;;;2.22;1.80;;;23.30;58.60;;;;;;4973755;28;20943;-65
2022/07/12 01:24:51;;;;;;;1.83;1.70;;;23.20;58.60;;;;;;4974943;28;20512;-66
2022/07/12 01:27:17;;;;;;;2.30;1.80;;;23.20;58.60;;;;;;4974900;28;20482;-64
2022/07/12 01:29:43;;;;;;;2.30;1.80;;;23.20;58.60;;;;;;4974497;28;20392;-66
2022/07/12 01:32:24;;;;;;;2.05;1.85;;;23.20;58.60;;;;;;4974761;28;20389;-70
2022/07/12 01:34:54;;;;;;;2.20;1.80;;;23.30;58.60;;;;;;4974780;28;20565;-65
2022/07/12 01:37:21;;;;;;;1.85;1.75;;;23.20;58.60;;;;;;4973442;28;20396;-64
2022/07/12 01:39:52;;;;;;;1.92;1.73;;;23.20;58.60;;;;;;4974330;28;20401;-65
2022/07/12 01:42:21;;;;;;;1.83;1.40;;;23.20;58.60;;;;;;4974633;28;20396;-64
2022/07/12 01:44:52;;;;;;;2.05;1.88;;;23.20;58.60;;;;;;4974340;28;20798;-68
2022/07/12 01:47:18;;;;;;;2.00;1.80;;;23.20;58.60;;;;;;4973350;28;20412;-65
2022/07/12 01:49:44;;;;;;;2.30;1.70;;;23.20;58.60;;;;;;4974151;28;20400;-64
2022/07/12 01:52:10;;;;;;;2.40;2.00;;;23.20;58.70;;;;;;4974563;28;20419;-64
2022/07/12 01:54:36;;;;;;;2.10;1.90;;;23.20;58.60;;;;;;4974052;28;20412;-66
2022/07/12 01:57:03;;;;;;;1.80;1.70;;;23.20;58.70;;;;;;4974368;28;20454;-65
2022/07/12 01:59:30;;;;;;;2.10;1.80;;;23.20;58.70;;;;;;4973902;28;20412;-65
2022/07/12 02:01:56;;;;;;;2.17;1.73;;;23.20;58.70;;;;;;4974066;28;20795;-66
2022/07/12 02:04:22;;;;;;;1.90;1.80;;;23.20;58.70;;;;;;4974296;28;20447;-65
2022/07/12 02:06:48;;;;;;;2.13;1.93;;;23.20;58.70;;;;;;4974112;28;20882;-65
2022/07/12 02:09:14;;;;;;;1.70;1.60;;;23.20;58.70;;;;;;4974165;28;20395;-66
2022/07/12 02:11:41;;;;;;;2.40;1.77;;;23.20;58.70;;;;;;4974026;28;20416;-66
2022/07/12 02:14:07;;;;;;;2.00;1.70;;;23.20;58.70;;;;;;4972909;28;20523;-65
2022/07/12 02:16:33;;;;;;;1.98;1.58;;;23.20;58.70;;;;;;4974165;28;20405;-65
2022/07/12 02:18:59;;;;;;;1.75;1.60;;;23.20;58.70;;;;;;4974077;28;20495;-65
2022/07/12 02:21:25;;;;;;;2.33;1.80;;;23.20;58.70;;;;;;4973988;28;20982;-65
2022/07/12 02:23:51;;;;;;;2.03;1.70;;;23.20;58.70;;;;;;4973310;28;20412;-65
2022/07/12 02:26:17;;;;;;;2.00;1.50;;;23.20;58.70;;;;;;4973728;28;20436;-65
2022/07/12 02:28:43;;;;;;;2.72;1.52;;;23.20;58.70;;;;;;4972745;28;20439;-65
2022/07/12 02:31:09;;;;;;;1.90;1.70;;;23.10;58.70;;;;;;4973699;28;20957;-69
2022/07/12 02:33:35;;;;;;;2.10;1.90;;;23.20;58.70;;;;;;4973591;28;20400;-65
2022/07/12 02:36:00;;;;;;;1.90;1.60;;;23.10;58.70;;;;;;4973431;28;20392;-65
2022/07/12 02:38:26;;;;;;;1.50;1.40;;;23.20;58.70;;;;;;4973626;28;20426;-65
2022/07/12 02:40:54;;;;;;;2.38;1.73;;;23.10;58.70;;;;;;4973535;28;20463;-65
2022/07/12 02:43:20;;;;;;;1.95;1.75;;;23.10;58.70;;;;;;4973435;28;20391;-65
2022/07/12 02:45:46;;;;;;;1.70;1.60;;;23.10;58.80;;;;;;4972846;28;20519;-66
2022/07/12 02:48:12;;;;;;;1.83;1.70;;;23.10;58.70;;;;;;4973399;28;20479;-64
2022/07/12 02:50:41;;;;;;;2.40;1.70;;;23.10;58.70;;;;;;4971682;28;20504;-65
2022/07/12 02:53:07;;;;;;;1.92;1.70;;;23.10;59.00;;;;;;4973187;28;20388;-64
2022/07/12 02:55:33;;;;;;;2.33;1.50;;;23.10;59.40;;;;;;4971820;28;20423;-67
2022/07/12 02:58:00;;;;;;;1.90;1.60;;;23.10;59.20;;;;;;4982696;28;20403;-65
2022/07/12 03:00:25;;;;;;;2.00;1.80;;;23.10;59.10;;;;;;4991254;28;20816;-65
2022/07/12 03:02:51;;;;;;;1.70;1.60;;;23.10;58.90;;;;;;4992378;28;20390;-65
2022/07/12 03:05:17;;;;;;;1.70;1.60;;;23.10;58.90;;;;;;4992578;28;20518;-65
2022/07/12 03:07:43;;;;;;;3.47;1.60;;;23.10;58.90;;;;;;4991955;28;20386;-65
2022/07/12 03:10:09;;;;;;;1.90;1.50;;;23.20;61.50;;;;;;4992372;28;20501;-65
2022/07/12 03:12:35;;;;;;;3.20;2.20;;;23.20;60.80;;;;;;4991028;28;20399;-65
2022/07/12 03:15:01;;;;;;;3.90;2.07;;;23.20;61.50;;;;;;4987401;28;20399;-65
2022/07/12 03:17:27;;;;;;;2.28;1.70;;;23.20;62.20;;;;;;4972898;28;20384;-65
2022/07/12 03:19:53;;;;;;;3.20;2.10;;;23.20;62.10;;;;;;4972381;28;20403;-65
2022/07/12 03:22:19;;;;;;;4.70;1.90;;;23.20;62.40;;;;;;4977636;28;20758;-65
2022/07/12 03:24:47;;;;;;;4.97;1.90;;;23.30;62.10;;;;;;4997341;28;20426;-67
2022/07/12 03:27:14;;;;;;;4.53;1.83;;;23.30;62.30;;;;;;4997259;28;20447;-66
2022/07/12 03:29:40;;;;;;;4.32;1.80;;;23.40;62.30;;;;;;4995464;28;20765;-65
2022/07/12 03:32:06;;;;;;;3.90;1.80;;;23.40;61.90;;;;;;4982683;28;20492;-66
2022/07/12 03:34:33;;;;;;;3.30;1.80;;;23.50;62.00;;;;;;4980525;28;20398;-66
2022/07/12 03:36:59;;;;;;;9.02;1.88;;;23.50;62.00;;;;;;4982103;28;20894;-65
2022/07/12 03:39:25;;;;;;;4.70;2.03;;;23.50;62.30;;;;;;4980543;28;20403;-70
2022/07/12 03:41:51;;;;;;;8.85;2.08;;;23.60;62.20;;;;;;4980264;28;20473;-65
2022/07/12 03:44:16;;;;;;;7.80;2.30;;;23.60;62.00;;;;;;4981887;28;20888;-65
2022/07/12 03:46:42;;;;;;;3.10;1.70;;;23.60;62.30;;;;;;4980215;28;20535;-65
2022/07/12 03:49:08;;;;;;;4.57;1.90;;;23.70;62.30;;;;;;4980454;28;20390;-66
2022/07/12 03:51:33;;;;;;;3.60;1.70;;;23.60;62.10;;;;;;4982201;28;20408;-65
2022/07/12 03:53:59;;;;;;;5.00;1.80;;;23.60;61.70;;;;;;4985105;28;20425;-65
2022/07/12 03:59:09;;;;;;;9.93;3.65;;;23.60;61.50;;;;;;4971111;28;20395;-65
2022/07/12 04:01:34;;;;;;;1999.90;630.78;;;23.60;61.40;;;;;;4971030;28;20404;-65
2022/07/12 04:04:00;;;;;;;1999.90;999.90;;;23.50;61.00;;;;;;4993427;28;20513;-65
2022/07/12 04:06:26;;;;;;;1999.90;798.03;;;23.50;61.00;;;;;;4994877;28;20466;-65
2022/07/12 04:08:51;;;;;;;1039.60;298.33;;;23.40;59.90;;;;;;5009707;28;20445;-65
2022/07/12 04:11:17;;;;;;;645.50;158.70;;;23.30;59.30;;;;;;4994573;28;20402;-65
2022/07/12 04:13:42;;;;;;;421.93;96.23;;;23.30;59.20;;;;;;4994332;28;20481;-65
2022/07/12 04:16:08;;;;;;;264.10;59.53;;;23.20;58.90;;;;;;4994630;28;21061;-65
2022/07/12 04:18:34;;;;;;;188.00;46.00;;;23.10;58.70;;;;;;5009439;28;20402;-65
2022/07/12 04:20:59;;;;;;;97.23;25.70;;;23.10;59.10;;;;;;4994283;28;20406;-65
2022/07/12 04:23:25;;;;;;;60.88;16.92;;;23.00;59.20;;;;;;4994540;28;20829;-66
2022/07/12 04:25:51;;;;;;;32.37;9.60;;;23.00;59.30;;;;;;4993267;28;20457;-67
2022/07/12 04:28:17;;;;;;;45.70;13.02;;;22.90;58.90;;;;;;4983779;28;20396;-65
2022/07/12 04:30:44;;;;;;;27.08;8.40;;;22.90;59.40;;;;;;4983406;28;20406;-66
2022/07/12 04:33:10;;;;;;;29.63;8.75;;;22.90;59.30;;;;;;4983282;28;20388;-65
2022/07/12 04:35:36;;;;;;;18.27;5.95;;;22.90;59.40;;;;;;4982597;28;20410;-66
2022/07/12 04:38:02;;;;;;;12.20;4.88;;;22.90;59.30;;;;;;4985163;28;20438;-66
2022/07/12 04:40:28;;;;;;;11.63;3.80;;;22.80;59.40;;;;;;4981365;28;20487;-66
2022/07/12 04:42:53;;;;;;;9.70;4.13;;;22.80;59.50;;;;;;4984542;28;20836;-66
2022/07/12 04:45:19;;;;;;;8.43;3.90;;;22.80;59.30;;;;;;4982649;28;20439;-65
2022/07/12 04:47:45;;;;;;;8.03;3.33;;;22.80;59.40;;;;;;4983008;28;20395;-65
2022/07/12 04:50:11;;;;;;;8.23;3.25;;;22.80;59.50;;;;;;4984302;28;20403;-65
2022/07/12 04:52:36;;;;;;;7.77;3.50;;;22.80;59.50;;;;;;4982468;28;20857;-66
2022/07/12 04:55:03;;;;;;;8.75;3.25;;;22.80;59.50;;;;;;4979412;28;20413;-65
2022/07/12 04:57:28;;;;;;;6.88;3.25;;;22.80;59.90;;;;;;4983559;28;21256;-65
2022/07/12 04:59:54;;;;;;;6.90;3.47;;;22.70;59.60;;;;;;4980790;28;20449;-66
2022/07/12 05:02:19;;;;;;;9.45;3.50;;;22.70;59.80;;;;;;4984301;28;20449;-65
2022/07/12 05:04:46;;;;;;;7.20;3.30;;;22.70;59.70;;;;;;4983195;28;20423;-64
2022/07/12 05:07:11;;;;;;;6.93;3.20;;;22.80;59.80;;;;;;4981051;28;20436;-65
2022/07/12 05:09:37;;;;;;;7.27;3.50;;;22.70;59.80;;;;;;4982522;28;20447;-65
2022/07/12 05:12:03;;;;;;;7.43;3.30;;;22.80;59.80;;;;;;4982855;28;20464;-65
2022/07/12 05:14:29;;;;;;;7.53;3.53;;;22.80;59.80;;;;;;4981287;28;20429;-65
2022/07/12 05:16:54;;;;;;;6.83;3.33;;;22.80;59.60;;;;;;4982856;28;20410;-65
2022/07/12 05:19:21;;;;;;;8.60;3.40;;;22.80;60.20;;;;;;4982448;28;20400;-66
2022/07/12 05:21:46;;;;;;;7.90;3.22;;;22.80;59.60;;;;;;4982351;28;20772;-65
2022/07/12 05:24:12;;;;;;;6.22;3.17;;;22.80;59.60;;;;;;4983744;28;20422;-65
2022/07/12 05:26:38;;;;;;;8.65;3.40;;;22.80;59.60;;;;;;4984001;28;20752;-65
2022/07/12 05:29:04;;;;;;;7.73;3.30;;;22.80;59.60;;;;;;4980495;28;20408;-67
2022/07/12 05:31:29;;;;;;;6.25;3.30;;;22.80;59.60;;;;;;4983573;28;20399;-67
2022/07/12 05:33:55;;;;;;;6.82;3.40;;;22.80;59.60;;;;;;4979989;28;20412;-66
2022/07/12 05:36:21;;;;;;;7.97;3.50;;;22.80;59.60;;;;;;4983207;28;20405;-67
2022/07/12 05:38:46;;;;;;;6.32;3.20;;;22.80;59.70;;;;;;4981106;28;20916;-66
2022/07/12 05:41:12;;;;;;;6.47;3.25;;;22.80;59.60;;;;;;4983131;28;20477;-66
2022/07/12 05:43:38;;;;;;;6.68;3.30;;;22.80;59.60;;;;;;4983466;28;20424;-67
2022/07/12 05:46:05;;;;;;;7.10;3.70;;;22.80;59.60;;;;;;4983536;28;20426;-69
2022/07/12 05:48:30;;;;;;;6.88;3.10;;;22.80;59.50;;;;;;4983376;28;20396;-65
2022/07/12 05:53:21;;;;;;;9.93;3.77;;;22.80;59.70;;;;;;4981282;28;20504;-65
2022/07/12 05:53:41;;;;;;;5.22;3.20;;;22.80;60.20;;;;;;4983036;28;20394;-66
2022/07/12 05:56:07;;;;;;;5.80;3.40;;;22.80;59.60;;;;;;4981304;28;20413;-65
2022/07/12 05:58:32;;;;;;;5.88;3.05;;;22.80;59.60;;;;;;4981185;28;20407;-65
2022/07/12 06:00:58;;;;;;;5.77;3.20;;;22.80;59.60;;;;;;4983061;28;20398;-65
2022/07/12 06:03:24;;;;;;;5.60;3.43;;;22.80;59.60;;;;;;4982191;28;20887;-65
2022/07/12 06:05:49;;;;;;;5.63;3.20;;;22.80;59.50;;;;;;4981039;28;20445;-66
2022/07/12 06:08:15;;;;;;;9.00;4.10;;;22.80;59.60;;;;;;4983002;28;20489;-65
2022/07/12 06:10:40;;;;;;;6.40;3.60;;;22.80;59.50;;;;;;4981478;28;20885;-66
2022/07/12 06:13:06;;;;;;;6.85;3.20;;;22.80;59.60;;;;;;4981863;28;20386;-67
2022/07/12 06:15:32;;;;;;;4.70;3.17;;;22.80;59.60;;;;;;4982894;28;20398;-69
2022/07/12 06:17:58;;;;;;;6.15;3.10;;;22.80;59.60;;;;;;4980527;28;20414;-65
2022/07/12 06:20:24;;;;;;;5.57;3.47;;;22.80;59.60;;;;;;4981959;28;20737;-66
2022/07/12 06:22:49;;;;;;;4.90;3.10;;;22.80;59.60;;;;;;4981150;28;20403;-65
2022/07/12 06:25:15;;;;;;;5.90;3.20;;;22.80;59.60;;;;;;4979862;28;20416;-65
2022/07/12 06:27:41;;;;;;;5.27;2.97;;;22.80;59.60;;;;;;4982149;28;20390;-65
2022/07/12 06:30:07;;;;;;;5.67;3.00;;;22.80;59.70;;;;;;4982301;28;20457;-65
2022/07/12 06:32:33;;;;;;;4.65;3.20;;;22.80;59.80;;;;;;4980471;28;20400;-65
2022/07/12 06:34:58;;;;;;;5.70;2.92;;;22.80;59.60;;;;;;4982441;28;20414;-65
2022/07/12 06:37:24;;;;;;;4.20;2.72;;;22.80;59.60;;;;;;4980178;28;20392;-65
2022/07/12 06:39:50;;;;;;;5.22;2.70;;;22.80;59.60;;;;;;4980400;28;20417;-65
2022/07/12 06:42:15;;;;;;;4.32;3.00;;;22.80;59.60;;;;;;4982319;28;20944;-65
2022/07/12 06:44:41;;;;;;;4.93;2.53;;;22.80;59.80;;;;;;4980612;28;20503;-64
2022/07/12 06:47:07;;;;;;;4.93;2.60;;;22.80;59.70;;;;;;4981036;28;20433;-64
2022/07/12 06:49:33;;;;;;;4.78;2.63;;;22.80;60.40;;;;;;4979690;28;20396;-64
2022/07/12 06:51:58;;;;;;;4.07;2.70;;;22.80;59.60;;;;;;4980062;28;20520;-65
2022/07/12 06:54:24;;;;;;;3.45;2.53;;;22.80;59.80;;;;;;4978856;28;20411;-64
2022/07/12 06:56:50;;;;;;;4.63;2.47;;;22.80;59.90;;;;;;4981352;28;20955;-65
2022/07/12 06:59:16;;;;;;;5.03;2.57;;;22.80;59.80;;;;;;4980859;28;20400;-64
2022/07/12 07:01:43;;;;;;;4.22;2.67;;;22.80;59.70;;;;;;4982389;28;20435;-64
2022/07/12 07:04:08;;;;;;;4.90;2.60;;;22.80;59.70;;;;;;4981477;28;21071;-64
2022/07/12 07:06:34;;;;;;;4.85;2.80;;;22.80;59.60;;;;;;4979829;28;20498;-64
2022/07/12 07:09:00;;;;;;;3.80;2.60;;;22.80;59.60;;;;;;4980160;28;20868;-65
2022/07/12 07:11:26;;;;;;;3.88;2.40;;;22.80;59.60;;;;;;4981997;28;20394;-65
2022/07/12 07:13:51;;;;;;;3.73;2.47;;;22.80;59.70;;;;;;4980116;28;20415;-66
2022/07/12 07:16:19;;;;;;;3.63;2.42;;;22.80;59.60;;;;;;4980580;28;20770;-69
2022/07/12 07:18:45;;;;;;;4.05;2.47;;;22.80;59.70;;;;;;4982088;28;20390;-64
2022/07/12 07:21:11;;;;;;;4.47;2.30;;;22.80;59.70;;;;;;4981607;28;20896;-66
2022/07/12 07:23:37;;;;;;;3.00;2.20;;;22.80;59.70;;;;;;4981149;28;20802;-64
2022/07/12 07:26:02;;;;;;;3.00;2.28;;;22.80;59.50;;;;;;4979208;28;20404;-65
2022/07/12 07:28:28;;;;;;;3.78;2.30;;;22.80;59.60;;;;;;4981555;28;20749;-64
2022/07/12 07:30:54;;;;;;;3.40;2.15;;;22.80;59.50;;;;;;4979634;28;20765;-64
2022/07/12 07:33:24;;;;;;;3.53;2.38;;;22.80;59.50;;;;;;4980065;28;20415;-64
2022/07/12 07:35:51;;;;;;;2.78;2.30;;;22.80;59.50;;;;;;4981237;28;20395;-65
2022/07/12 07:38:18;;;;;;;2.53;2.30;;;22.90;59.60;;;;;;4980796;28;20419;-64
2022/07/12 07:40:45;;;;;;;2.92;2.20;;;22.90;59.50;;;;;;4979513;28;20401;-65
2022/07/12 07:43:10;;;;;;;4.13;2.50;;;22.90;60.20;;;;;;4979545;28;20402;-66
2022/07/12 07:45:36;;;;;;;2.40;2.07;;;22.80;59.50;;;;;;4978638;28;20437;-65
2022/07/12 07:48:02;;;;;;;2.92;2.20;;;22.80;59.50;;;;;;4981113;28;20449;-69
2022/07/12 07:50:29;;;;;;;2.38;2.00;;;22.90;59.70;;;;;;4981545;28;20402;-65
2022/07/12 07:52:54;;;;;;;2.17;1.90;;;22.90;59.50;;;;;;4979075;28;20875;-65
2022/07/12 07:55:20;;;;;;;2.23;2.00;;;22.90;59.60;;;;;;4979433;28;20480;-65
2022/07/12 07:57:47;;;;;;;2.95;2.10;;;22.90;59.60;;;;;;4979287;28;20400;-65
2022/07/12 08:00:14;;;;;;;2.25;2.00;;;22.90;59.60;;;;;;4980431;28;20398;-65
2022/07/12 08:02:41;;;;;;;2.50;2.00;;;22.90;59.60;;;;;;4980991;28;20396;-64
2022/07/12 08:05:07;;;;;;;2.90;2.20;;;22.90;59.60;;;;;;4979175;28;20431;-64
2022/07/12 08:07:33;;;;;;;2.67;2.05;;;22.90;59.50;;;;;;4980446;28;20391;-65
2022/07/12 08:09:58;;;;;;;2.73;2.30;;;22.90;59.50;;;;;;4980296;28;20414;-64
2022/07/12 08:12:24;;;;;;;2.85;2.10;;;22.90;59.50;;;;;;4982148;28;20384;-65
2022/07/12 08:14:49;;;;;;;2.40;2.20;;;22.90;59.60;;;;;;4979457;28;20483;-65
2022/07/12 08:17:15;;;;;;;2.70;2.00;;;22.90;59.50;;;;;;4978759;28;20887;-65
2022/07/12 08:19:41;;;;;;;2.58;2.10;;;22.90;59.50;;;;;;4979255;28;20488;-65
2022/07/12 08:22:06;;;;;;;2.43;2.07;;;22.90;59.50;;;;;;4990384;28;20441;-64
2022/07/12 08:24:32;;;;;;;2.45;2.03;;;22.90;59.50;;;;;;4989488;28;20429;-65
2022/07/12 08:26:58;;;;;;;2.27;2.07;;;22.90;59.50;;;;;;4991109;28;20423;-64
2022/07/12 08:29:23;;;;;;;2.33;2.13;;;22.90;59.50;;;;;;4987995;28;20411;-65
2022/07/12 08:31:49;;;;;;;2.30;1.90;;;22.90;59.50;;;;;;4971717;28;20527;-65
2022/07/12 08:34:14;;;;;;;1.93;1.80;;;22.90;59.50;;;;;;4988330;28;20824;-64
2022/07/12 08:36:40;;;;;;;2.13;1.93;;;22.90;59.60;;;;;;4987544;28;20420;-65
2022/07/12 08:39:06;;;;;;;2.40;2.20;;;22.90;59.50;;;;;;4991599;28;20926;-66
2022/07/12 08:41:32;;;;;;;2.50;2.03;;;22.90;59.50;;;;;;4991720;28;20422;-65
2022/07/12 08:43:57;;;;;;;2.95;1.98;;;22.90;59.50;;;;;;5005629;28;20482;-65
2022/07/12 08:46:23;;;;;;;2.43;1.90;;;22.90;59.50;;;;;;4990735;28;20935;-66
2022/07/12 08:48:49;;;;;;;2.13;1.90;;;22.90;59.50;;;;;;4993751;28;20992;-66
2022/07/12 08:51:19;;;;;;;2.90;2.00;;;22.90;59.50;;;;;;5009992;28;20406;-66
2022/07/12 08:53:45;;;;;;;2.28;2.00;;;22.90;59.60;;;;;;4995141;28;20391;-66
2022/07/12 08:56:33;;;;;;;2.20;1.70;;;22.90;59.60;;;;;;5009621;28;20402;-66
2022/07/12 08:59:16;;;;;;;2.10;1.83;;;22.90;59.50;;;;;;5009871;28;20497;-65
2022/07/12 09:01:53;;;;;;;2.10;1.80;;;22.90;59.50;;;;;;5010001;28;20888;-65
2022/07/12 09:04:24;;;;;;;2.78;1.88;;;22.90;60.00;;;;;;5009555;28;20450;-65
2022/07/12 09:06:50;;;;;;;2.40;1.80;;;22.90;59.40;;;;;;4994965;28;20383;-65
2022/07/12 09:09:33;;;;;;;1.95;1.63;;;22.90;59.40;;;;;;5009922;28;20394;-65
2022/07/12 09:11:59;;;;;;;2.10;1.80;;;22.90;59.40;;;;;;4994307;28;20880;-67
2022/07/12 09:14:26;;;;;;;2.20;1.70;;;22.90;59.40;;;;;;5009913;28;20398;-66
2022/07/12 09:17:12;;;;;;;2.00;1.80;;;22.90;59.40;;;;;;4994541;28;20399;-66
2022/07/12 09:19:39;;;;;;;1.95;1.85;;;22.90;59.40;;;;;;4994715;28;20434;-65
2022/07/12 09:22:15;;;;;;;2.40;2.03;;;22.90;59.40;;;;;;4994023;28;20391;-67
2022/07/12 09:24:40;;;;;;;2.30;2.10;;;22.90;59.40;;;;;;5002956;28;20460;-70
2022/07/12 09:27:06;;;;;;;2.20;2.00;;;22.90;59.50;;;;;;4982484;28;20449;-65
2022/07/12 09:29:35;;;;;;;1.90;1.67;;;22.90;59.50;;;;;;4982609;28;20403;-70
2022/07/12 09:37:42;;;;;;;2.10;1.80;;;22.90;59.50;;;;;;4985637;28;20384;-66
2022/07/12 09:40:09;;;;;;;2.67;1.90;;;23.00;59.60;;;;;;4982551;28;20404;-69
2022/07/12 09:42:37;;;;;;;2.10;1.90;;;23.00;59.50;;;;;;4983882;28;20394;-68
2022/07/12 09:45:04;;;;;;;2.90;2.35;;;23.00;60.30;;;;;;4984541;28;20492;-70
2022/07/12 09:47:30;;;;;;;3.28;2.40;;;23.00;60.00;;;;;;4982415;28;20868;-69
2022/07/12 09:49:56;;;;;;;4.30;2.53;;;23.00;60.80;;;;;;4982903;28;20399;-68
2022/07/12 09:52:23;;;;;;;3.25;2.22;;;23.00;61.70;;;;;;4982537;28;20383;-67
2022/07/12 09:54:52;;;;;;;2.53;2.20;;;23.00;61.30;;;;;;4982185;28;20408;-69
2022/07/12 09:57:26;;;;;;;3.57;2.40;;;23.00;60.50;;;;;;4975862;28;20392;-70
2022/07/12 09:59:53;;;;;;;3.05;2.40;;;23.00;61.50;;;;;;4973122;28;20412;-66
2022/07/12 10:02:20;;;;;;;2.95;2.45;;;23.00;61.40;;;;;;4973608;28;20407;-67
2022/07/12 10:04:47;;;;;;;3.17;2.40;;;23.00;61.70;;;;;;4974112;28;20424;-67
2022/07/12 10:07:15;;;;;;;2.83;2.40;;;23.10;61.30;;;;;;4974207;28;20442;-70
2022/07/12 10:09:52;;;;;;;3.00;2.20;;;23.10;61.20;;;;;;4974387;28;20407;-67
2022/07/12 10:12:21;;;;;;;2.60;2.25;;;23.10;61.20;;;;;;4974024;28;20388;-66
2022/07/12 10:15:02;;;;;;;3.00;2.37;;;23.10;61.10;;;;;;4974173;28;20412;-66
2022/07/12 10:17:30;;;;;;;2.60;2.40;;;23.10;61.10;;;;;;4974300;28;20403;-66
2022/07/12 10:20:26;;;;;;;2.63;2.40;;;23.10;61.20;;;;;;4972749;28;20388;-67
2022/07/12 10:23:15;;;;;;;3.58;2.38;;;23.20;61.10;;;;;;4965705;28;20408;-67
2022/07/12 10:25:42;;;;;;;2.85;2.50;;;23.20;60.90;;;;;;4971715;28;20801;-67
2022/07/12 10:28:07;;;;;;;2.72;2.47;;;23.20;60.50;;;;;;4983123;28;20387;-66
2022/07/12 10:30:44;;;;;;;2.45;2.22;;;23.10;60.20;;;;;;4991887;28;20413;-67
2022/07/12 10:33:21;;;;;;;2.80;2.30;;;23.10;60.00;;;;;;4992733;28;20393;-64
2022/07/12 10:35:59;;;;;;;2.47;2.17;;;23.10;60.00;;;;;;4992796;28;20435;-65
2022/07/12 10:38:25;;;;;;;3.10;2.40;;;23.10;59.90;;;;;;4992477;28;20916;-65
2022/07/12 10:40:51;;;;;;;2.53;2.33;;;23.10;59.80;;;;;;4991546;28;20402;-66
2022/07/12 10:46:24;;;;;;;2.13;1.92;;;23.10;59.80;;;;;;4991939;28;20421;-65
2022/07/12 10:48:50;;;;;;;2.33;2.13;;;23.10;59.60;;;;;;4992593;28;20473;-66
2022/07/12 10:51:20;;;;;;;2.42;2.22;;;23.10;59.70;;;;;;4985894;28;20392;-64
2022/07/12 10:53:48;;;;;;;2.65;2.17;;;23.10;59.70;;;;;;4972377;28;20388;-66
2022/07/12 10:56:25;;;;;;;2.40;2.20;;;23.10;59.60;;;;;;4971083;28;20483;-64
2022/07/12 10:58:53;;;;;;;2.60;2.40;;;23.10;59.60;;;;;;4971615;28;20399;-64
2022/07/12 11:01:22;;;;;;;2.33;2.13;;;23.10;59.50;;;;;;4975706;28;20422;-64
2022/07/12 11:03:53;;;;;;;2.90;2.20;;;23.10;59.50;;;;;;4975292;28;20396;-64
2022/07/12 11:06:21;;;;;;;2.90;2.20;;;23.10;59.50;;;;;;4971991;28;20907;-64
2022/07/12 11:09:15;;;;;;;3.17;2.20;;;23.10;59.60;;;;;;4971571;28;20404;-68
2022/07/12 11:11:48;;;;;;;3.15;2.10;;;23.10;59.60;;;;;;4970867;28;20407;-64
2022/07/12 11:14:24;;;;;;;2.25;1.90;;;23.10;59.50;;;;;;4971823;28;20969;-64
2022/07/12 11:16:51;;;;;;;3.23;2.07;;;23.20;59.50;;;;;;4972636;28;20448;-64
2022/07/12 11:19:25;;;;;;;2.30;2.10;;;23.20;59.40;;;;;;4970951;28;20412;-64
2022/07/12 11:21:58;;;;;;;3.22;2.13;;;23.10;59.30;;;;;;4972399;28;20388;-66
2022/07/12 11:24:31;;;;;;;5.45;2.00;;;23.10;59.30;;;;;;4971980;28;20442;-64
2022/07/12 11:26:59;;;;;;;3.90;2.43;;;23.20;59.40;;;;;;4972667;28;20412;-66
2022/07/12 11:29:25;;;;;;;4.22;2.05;;;23.20;59.40;;;;;;4972615;28;20472;-65
2022/07/12 11:32:04;;;;;;;3.07;2.40;;;23.20;59.50;;;;;;4972398;28;20989;-65
2022/07/12 11:34:29;;;;;;;3.85;2.25;;;23.20;59.50;;;;;;4971717;28;20423;-65
2022/07/12 11:36:57;;;;;;;3.17;2.00;;;23.20;59.60;;;;;;4972399;28;20396;-66
2022/07/12 11:39:38;;;;;;;4.00;2.10;;;23.20;59.50;;;;;;4972628;28;20392;-65
2022/07/12 11:42:04;;;;;;;2.80;1.95;;;23.20;59.50;;;;;;4972025;28;20458;-67
2022/07/12 11:44:47;;;;;;;3.80;2.10;;;23.20;59.50;;;;;;4972300;28;20427;-66
2022/07/12 11:47:14;;;;;;;2.38;2.17;;;23.20;59.50;;;;;;4970908;28;20792;-66
2022/07/12 11:49:52;;;;;;;4.17;2.33;;;23.20;59.40;;;;;;4972440;28;20396;-66
2022/07/12 11:52:22;;;;;;;3.78;2.05;;;23.20;59.40;;;;;;4972049;28;20417;-67
2022/07/12 11:54:50;;;;;;;3.45;2.10;;;23.20;59.40;;;;;;4988134;28;20456;-66
2022/07/12 11:57:20;;;;;;;2.83;1.98;;;23.20;59.40;;;;;;4990745;28;20390;-66
2022/07/12 11:59:45;;;;;;;2.80;1.90;;;23.20;59.40;;;;;;4991761;28;20768;-64
2022/07/12 12:02:13;;;;;;;3.67;1.97;;;23.20;59.30;;;;;;4976222;28;20404;-65
2022/07/12 12:04:46;;;;;;;2.47;2.20;;;23.20;59.30;;;;;;4970539;28;20428;-66
2022/07/12 12:07:16;;;;;;;2.70;2.20;;;23.20;59.30;;;;;;4972275;28;20384;-66
2022/07/12 12:10:02;;;;;;;2.28;1.92;;;23.30;59.30;;;;;;4973028;28;20400;-65
2022/07/12 12:12:51;;;;;;;2.40;2.10;;;23.30;59.20;;;;;;4974669;28;20463;-65
2022/07/12 12:15:29;;;;;;;2.70;2.05;;;23.30;59.20;;;;;;4998449;28;20410;-65
2022/07/12 12:18:05;;;;;;;2.92;1.83;;;23.20;59.10;;;;;;4981027;28;20417;-64
2022/07/12 12:20:34;;;;;;;2.85;2.00;;;23.30;59.80;;;;;;4976065;28;20902;-64
2022/07/12 12:23:02;;;;;;;2.50;1.92;;;23.30;59.10;;;;;;4992518;28;20394;-68
2022/07/12 12:25:30;;;;;;;3.25;1.90;;;23.30;59.10;;;;;;5010463;28;20425;-66
2022/07/12 12:28:02;;;;;;;2.27;2.07;;;23.30;59.00;;;;;;4995180;28;20394;-64
2022/07/12 12:30:31;;;;;;;3.20;2.08;;;23.30;59.00;;;;;;4995428;28;20781;-65
2022/07/12 12:32:59;;;;;;;2.20;1.92;;;23.30;59.00;;;;;;4995443;28;20394;-64
2022/07/12 12:35:38;;;;;;;3.33;2.15;;;23.30;59.00;;;;;;4994917;28;20468;-66
2022/07/12 12:38:14;;;;;;;2.90;2.20;;;23.30;58.90;;;;;;4994640;28;20397;-66
2022/07/12 12:40:49;;;;;;;2.33;2.13;;;23.30;58.90;;;;;;4995177;28;20406;-65
2022/07/12 12:43:19;;;;;;;2.92;2.10;;;23.30;58.80;;;;;;4994856;28;20394;-66
2022/07/12 12:45:57;;;;;;;2.30;2.10;;;23.30;58.70;;;;;;4994903;28;20927;-65
2022/07/12 12:48:25;;;;;;;2.25;2.05;;;23.40;58.80;;;;;;4994761;28;20406;-66
2022/07/12 12:50:53;;;;;;;2.47;2.27;;;23.30;58.70;;;;;;4994743;28;20406;-64
2022/07/12 12:53:24;;;;;;;2.40;2.10;;;23.40;58.70;;;;;;4994876;28;20382;-67
2022/07/12 12:55:52;;;;;;;2.35;2.00;;;23.40;58.60;;;;;;4994712;28;20442;-64
2022/07/12 12:58:19;;;;;;;2.13;1.92;;;23.40;58.60;;;;;;4994485;28;20485;-66
2022/07/12 13:00:47;;;;;;;2.10;1.90;;;23.30;58.50;;;;;;5009799;28;20504;-64